Time;durP1;ratioP1;P1;durP2;ratioP2;P2;SDS_P1;SDS_P2;PMS_P1;PMS_P2;Temp;Humidity;BMP_temperature;BMP_pressure;BME280_temperature;BME280_humidity;BME280_pressure;Samples;Min_cycle;Max_cycle;Signal;HPM_P1;HPM_P2
2023/05/14 00:01:52;;;;;;;9.63;4.57;;;11.80;99.90;;;;;;4989394;28;20100;-68
2023/05/14 00:04:18;;;;;;;8.63;4.37;;;11.80;99.90;;;;;;5004265;28;20037;-68
2023/05/14 00:06:44;;;;;;;10.10;4.88;;;11.80;99.90;;;;;;4990984;28;20049;-69
2023/05/14 00:09:10;;;;;;;10.27;4.95;;;11.80;99.90;;;;;;4982971;28;20527;-68
2023/05/14 00:11:36;;;;;;;7.72;4.50;;;11.80;99.90;;;;;;4996813;28;20049;-68
2023/05/14 00:14:02;;;;;;;7.05;4.28;;;11.80;99.90;;;;;;5008717;28;20542;-68
2023/05/14 00:16:27;;;;;;;7.80;4.20;;;11.70;99.90;;;;;;4984861;28;20048;-68
2023/05/14 00:18:53;;;;;;;10.70;4.67;;;11.80;99.90;;;;;;4988425;28;20161;-68
2023/05/14 00:21:19;;;;;;;7.67;4.50;;;11.80;99.90;;;;;;4997455;28;20034;-68
2023/05/14 00:23:44;;;;;;;8.15;4.88;;;11.80;99.90;;;;;;5001457;28;20187;-68
2023/05/14 00:26:10;;;;;;;8.97;4.33;;;11.80;99.90;;;;;;4986321;28;20133;-68
2023/05/14 00:28:35;;;;;;;8.27;4.87;;;11.80;99.90;;;;;;5004843;28;20141;-68
2023/05/14 00:31:01;;;;;;;8.63;4.30;;;11.70;99.90;;;;;;4997571;28;20171;-68
2023/05/14 00:36:02;;;;;;;10.75;5.25;;;11.70;99.90;;;;;;4991708;28;20081;-68
2023/05/14 00:38:28;;;;;;;;;;;11.70;99.90;;;;;;4985737;28;20042;-70
2023/05/14 00:40:54;;;;;;;10.13;4.65;;;11.70;99.90;;;;;;4984572;28;20268;-70
2023/05/14 00:43:20;;;;;;;11.43;5.63;;;11.70;99.90;;;;;;5000884;28;20046;-71
2023/05/14 00:45:49;;;;;;;11.02;5.00;;;11.60;99.90;;;;;;4968525;28;20097;-70
2023/05/14 00:48:15;;;;;;;8.38;4.43;;;11.60;99.90;;;;;;5008492;28;20050;-70
2023/05/14 00:50:41;;;;;;;11.48;4.80;;;11.60;99.90;;;;;;4981355;28;20368;-70
2023/05/14 00:53:09;;;;;;;8.07;5.25;;;11.60;99.90;;;;;;4981321;28;20132;-70
2023/05/14 00:55:37;;;;;;;7.13;5.13;;;11.50;99.90;;;;;;4995774;28;20051;-70
2023/05/14 00:58:06;;;;;;;9.65;5.40;;;11.60;99.90;;;;;;4993043;28;20049;-70
2023/05/14 01:00:32;;;;;;;11.18;5.45;;;11.60;99.90;;;;;;4983258;28;20053;-70
2023/05/14 01:03:00;;;;;;;8.70;5.67;;;11.60;99.90;;;;;;4991663;28;20122;-70
2023/05/14 01:05:44;;;;;;;19.08;6.60;;;11.60;99.90;;;;;;4985625;28;20273;-70
2023/05/14 01:08:45;;;;;;;9.45;5.55;;;11.60;99.90;;;;;;4955058;28;20066;-70
2023/05/14 01:11:18;;;;;;;10.38;5.97;;;11.60;99.90;;;;;;4966534;28;20050;-70
2023/05/14 01:14:09;;;;;;;10.38;5.30;;;11.40;99.90;;;;;;4979032;28;20042;-70
2023/05/14 01:16:37;;;;;;;10.75;5.25;;;11.50;99.90;;;;;;4976546;28;20038;-70
2023/05/14 01:19:06;;;;;;;9.45;5.63;;;11.50;99.90;;;;;;4988889;28;20050;-70
2023/05/14 01:21:41;;;;;;;9.50;5.38;;;11.50;99.90;;;;;;4992738;28;20042;-70
2023/05/14 01:24:07;;;;;;;10.85;5.80;;;11.60;99.90;;;;;;4991516;28;20061;-70
2023/05/14 01:26:34;;;;;;;10.05;5.70;;;11.50;99.90;;;;;;4985354;28;20050;-70
2023/05/14 01:29:21;;;;;;;8.48;5.30;;;11.50;99.90;;;;;;4990086;28;20491;-70
2023/05/14 01:31:49;;;;;;;8.98;5.57;;;11.60;99.90;;;;;;4990718;28;20429;-69
2023/05/14 01:34:18;;;;;;;9.95;5.07;;;11.50;99.90;;;;;;4976757;28;20054;-70
2023/05/14 01:36:46;;;;;;;12.68;5.88;;;11.50;99.90;;;;;;4977308;28;20052;-69
2023/05/14 01:39:14;;;;;;;8.38;5.28;;;11.50;99.90;;;;;;4975355;28;20132;-69
2023/05/14 01:41:41;;;;;;;10.43;5.47;;;11.50;99.90;;;;;;4981778;28;20143;-70
2023/05/14 01:44:08;;;;;;;8.73;5.30;;;11.50;99.90;;;;;;4983252;28;20180;-70
2023/05/14 01:46:34;;;;;;;8.30;4.88;;;11.50;99.90;;;;;;4991843;28;20046;-70
2023/05/14 01:49:00;;;;;;;8.50;4.73;;;11.50;99.90;;;;;;4989625;28;20048;-70
2023/05/14 01:51:25;;;;;;;7.60;5.45;;;11.50;99.90;;;;;;4985628;28;20299;-70
2023/05/14 01:53:51;;;;;;;10.02;5.75;;;11.40;99.90;;;;;;4984235;28;20042;-70
2023/05/14 01:56:18;;;;;;;8.15;4.68;;;11.40;99.90;;;;;;4994914;28;20495;-70
2023/05/14 01:58:44;;;;;;;9.35;5.35;;;11.40;99.90;;;;;;4991245;28;20056;-70
2023/05/14 02:01:10;;;;;;;10.93;4.93;;;11.50;99.90;;;;;;4983562;28;20038;-70
2023/05/14 02:03:35;;;;;;;11.27;6.03;;;11.40;99.90;;;;;;4991662;28;20107;-70
2023/05/14 02:06:01;;;;;;;8.90;5.50;;;11.40;99.90;;;;;;4967046;28;20547;-70
2023/05/14 02:08:26;;;;;;;10.70;5.53;;;11.40;99.90;;;;;;4983017;28;20046;-70
2023/05/14 02:10:52;;;;;;;11.63;5.13;;;11.40;99.90;;;;;;4997009;28;20038;-70
2023/05/14 02:13:18;;;;;;;14.13;5.50;;;11.40;99.90;;;;;;4984799;28;20046;-70
2023/05/14 02:15:44;;;;;;;10.55;5.20;;;11.30;99.90;;;;;;4990964;28;20084;-70
2023/05/14 02:18:10;;;;;;;8.77;5.47;;;11.30;99.90;;;;;;4986317;28;20074;-70
2023/05/14 02:20:35;;;;;;;14.13;6.40;;;11.40;99.90;;;;;;4983338;28;20569;-70
2023/05/14 02:23:01;;;;;;;12.20;5.83;;;11.30;99.90;;;;;;4987038;28;20063;-70
2023/05/14 02:25:26;;;;;;;10.17;5.53;;;11.40;99.90;;;;;;4995073;28;20046;-70
2023/05/14 02:27:52;;;;;;;11.40;6.25;;;11.30;99.90;;;;;;4983840;28;20046;-70
2023/05/14 02:30:18;;;;;;;9.17;5.53;;;11.30;99.90;;;;;;4984839;28;20065;-70
2023/05/14 02:32:43;;;;;;;8.97;4.97;;;11.30;99.90;;;;;;4987194;28;20121;-70
2023/05/14 02:35:09;;;;;;;11.10;5.63;;;11.30;99.90;;;;;;4986386;28;20045;-70
2023/05/14 02:37:34;;;;;;;13.40;5.07;;;11.30;99.90;;;;;;4992328;28;20195;-70
2023/05/14 02:40:00;;;;;;;9.67;5.20;;;11.30;99.90;;;;;;4982209;28;20378;-70
2023/05/14 02:42:26;;;;;;;16.10;5.73;;;11.30;99.90;;;;;;4988370;28;20096;-70
2023/05/14 02:44:51;;;;;;;8.80;5.17;;;11.20;99.90;;;;;;4984717;28;20283;-70
2023/05/14 02:47:17;;;;;;;10.70;5.47;;;11.20;99.90;;;;;;4983393;28;20100;-70
2023/05/14 02:49:43;;;;;;;12.13;5.80;;;11.30;99.90;;;;;;4986754;28;20470;-70
2023/05/14 02:52:09;;;;;;;13.10;6.77;;;11.20;99.90;;;;;;4980915;28;20092;-70
2023/05/14 02:54:34;;;;;;;9.73;5.23;;;11.30;99.90;;;;;;4979727;28;20334;-70
2023/05/14 02:57:00;;;;;;;14.27;5.83;;;11.20;99.90;;;;;;4985095;28;20042;-70
2023/05/14 02:59:25;;;;;;;12.07;6.20;;;11.20;99.90;;;;;;4990166;28;20123;-70
2023/05/14 03:01:51;;;;;;;14.00;5.57;;;11.20;99.90;;;;;;4984229;28;20049;-70
2023/05/14 03:04:17;;;;;;;13.85;6.43;;;11.20;99.90;;;;;;4985742;28;20073;-70
2023/05/14 03:06:42;;;;;;;10.03;5.27;;;11.20;99.90;;;;;;4991299;28;20173;-69
2023/05/14 03:09:08;;;;;;;10.57;5.40;;;11.20;99.90;;;;;;4974463;28;20049;-70
2023/05/14 03:11:34;;;;;;;16.37;5.73;;;11.20;99.90;;;;;;4997193;28;20124;-70
2023/05/14 03:14:00;;;;;;;12.05;6.20;;;11.10;99.90;;;;;;4987681;28;20114;-70
2023/05/14 03:16:25;;;;;;;14.82;5.45;;;11.20;99.90;;;;;;4986651;28;20046;-70
2023/05/14 03:18:51;;;;;;;10.00;5.57;;;11.30;99.90;;;;;;4985460;28;20042;-70
2023/05/14 03:21:17;;;;;;;11.77;6.33;;;11.20;99.90;;;;;;5002967;28;20570;-70
2023/05/14 03:23:42;;;;;;;12.53;5.63;;;11.20;99.90;;;;;;4987886;28;20499;-70
2023/05/14 03:26:08;;;;;;;12.17;5.40;;;11.20;99.90;;;;;;4979901;28;20279;-70
2023/05/14 03:28:34;;;;;;;12.10;6.17;;;11.20;99.90;;;;;;4988054;28;20046;-70
2023/05/14 03:31:00;;;;;;;10.23;6.07;;;11.20;99.90;;;;;;4994144;28;20121;-70
2023/05/14 03:33:25;;;;;;;10.85;5.60;;;11.30;99.90;;;;;;4998709;28;20582;-71
2023/05/14 03:35:51;;;;;;;9.25;4.93;;;11.20;99.90;;;;;;4984304;28;20053;-70
2023/05/14 03:38:16;;;;;;;8.80;4.33;;;11.20;99.90;;;;;;5005269;28;20062;-70
2023/05/14 03:40:43;;;;;;;14.07;4.63;;;11.20;99.90;;;;;;4987546;28;20041;-70
2023/05/14 03:43:08;;;;;;;;;;;11.20;99.90;;;;;;4988097;28;20373;-70
2023/05/14 03:45:34;;;;;;;13.43;4.15;;;11.20;99.90;;;;;;4978146;28;19984;-69
2023/05/14 03:48:00;;;;;;;12.75;5.90;;;11.30;99.90;;;;;;4983770;28;20061;-69
2023/05/14 03:50:26;;;;;;;14.50;5.43;;;11.30;99.90;;;;;;4984932;28;20066;-69
2023/05/14 03:52:52;;;;;;;7.93;4.85;;;11.30;99.90;;;;;;4974303;28;20077;-69
2023/05/14 03:55:18;;;;;;;11.27;5.15;;;11.20;99.90;;;;;;4981397;28;20054;-69
2023/05/14 03:57:44;;;;;;;12.73;5.13;;;11.20;99.90;;;;;;4988960;28;20137;-69
2023/05/14 04:00:11;;;;;;;11.55;4.50;;;11.20;99.90;;;;;;4979694;28;20053;-70
2023/05/14 04:02:36;;;;;;;12.48;5.55;;;11.20;99.90;;;;;;4989884;28;20113;-70
2023/05/14 04:05:03;;;;;;;9.07;5.13;;;11.20;99.90;;;;;;4976057;28;20042;-70
2023/05/14 04:07:28;;;;;;;10.45;4.95;;;11.20;99.90;;;;;;4984298;28;20046;-70
2023/05/14 04:09:54;;;;;;;10.83;5.13;;;11.20;99.90;;;;;;4980212;28;20045;-69
2023/05/14 04:12:20;;;;;;;13.17;4.40;;;11.20;99.90;;;;;;4987548;28;20031;-70
2023/05/14 04:14:45;;;;;;;12.63;5.23;;;11.20;99.90;;;;;;4991758;28;20148;-70
2023/05/14 04:17:11;;;;;;;7.00;4.67;;;11.30;99.90;;;;;;4983061;28;20812;-70
2023/05/14 04:19:36;;;;;;;10.17;4.90;;;11.30;99.90;;;;;;4980962;28;20054;-70
2023/05/14 04:22:02;;;;;;;8.83;5.07;;;11.30;99.90;;;;;;4980705;28;20390;-70
2023/05/14 04:24:28;;;;;;;11.65;4.78;;;11.30;99.90;;;;;;4993545;28;20078;-69
2023/05/14 04:26:54;;;;;;;10.37;4.63;;;11.40;99.90;;;;;;4991014;28;20735;-70
2023/05/14 04:29:19;;;;;;;11.60;4.93;;;11.40;99.90;;;;;;4984468;28;20046;-69
2023/05/14 04:31:45;;;;;;;12.47;4.70;;;11.40;99.90;;;;;;4989928;28;20110;-69
2023/05/14 04:34:11;;;;;;;12.55;4.65;;;11.40;99.90;;;;;;4999190;28;20349;-69
2023/05/14 04:36:36;;;;;;;12.10;5.38;;;11.50;99.90;;;;;;4981126;28;20057;-70
2023/05/14 04:39:02;;;;;;;9.75;4.80;;;11.60;99.90;;;;;;4989856;28;20061;-69
2023/05/14 04:41:28;;;;;;;10.57;4.93;;;11.50;99.90;;;;;;4990489;28;20125;-69
2023/05/14 04:43:59;;;;;;;11.87;5.13;;;11.60;99.90;;;;;;4995574;28;20153;-69
2023/05/14 04:46:25;;;;;;;16.92;4.95;;;11.60;99.90;;;;;;4986501;28;20136;-70
2023/05/14 04:48:51;;;;;;;13.73;5.88;;;11.60;99.90;;;;;;4986474;28;20265;-69
2023/05/14 04:51:16;;;;;;;15.30;5.40;;;11.60;99.90;;;;;;4982336;28;20130;-70
2023/05/14 04:53:42;;;;;;;12.93;4.80;;;11.60;99.90;;;;;;4987529;28;20042;-70
2023/05/14 04:56:07;;;;;;;15.20;4.47;;;11.70;99.90;;;;;;4970000;28;20030;-70
2023/05/14 04:58:33;;;;;;;14.33;5.17;;;11.70;99.90;;;;;;4968634;28;20108;-70
2023/05/14 05:00:59;;;;;;;17.83;4.93;;;11.70;99.90;;;;;;4979467;28;20318;-70
2023/05/14 05:03:24;;;;;;;13.23;4.70;;;11.80;99.90;;;;;;4986707;28;20068;-69
2023/05/14 05:05:50;;;;;;;15.90;5.20;;;11.80;99.90;;;;;;4986538;28;20118;-70
2023/05/14 05:08:16;;;;;;;10.07;4.93;;;11.90;99.90;;;;;;4980126;28;20628;-70
2023/05/14 05:10:42;;;;;;;9.37;4.43;;;11.80;99.90;;;;;;4993953;28;20038;-69
2023/05/14 05:13:07;;;;;;;19.80;4.63;;;11.90;99.90;;;;;;4986822;28;20049;-69
2023/05/14 05:15:33;;;;;;;9.97;4.77;;;11.90;99.90;;;;;;4985950;28;20038;-70
2023/05/14 05:17:59;;;;;;;10.70;5.07;;;12.00;99.90;;;;;;4986512;28;20050;-70
2023/05/14 05:20:26;;;;;;;10.30;4.93;;;12.00;99.90;;;;;;4987636;28;20511;-69
2023/05/14 05:22:52;;;;;;;8.77;4.53;;;12.00;99.90;;;;;;4989896;28;20404;-70
2023/05/14 05:25:18;;;;;;;14.05;5.85;;;12.10;99.90;;;;;;4996348;28;20038;-69
2023/05/14 05:27:44;;;;;;;11.67;4.57;;;12.10;99.90;;;;;;4994097;28;20050;-69
2023/05/14 05:30:10;;;;;;;12.80;4.78;;;12.20;99.90;;;;;;4995841;28;20300;-70
2023/05/14 05:32:36;;;;;;;11.80;4.30;;;12.20;99.90;;;;;;4984847;28;20122;-70
2023/05/14 05:35:02;;;;;;;15.55;4.55;;;12.20;99.90;;;;;;4979288;28;20412;-70
2023/05/14 05:37:28;;;;;;;11.80;4.85;;;12.20;99.90;;;;;;4983655;28;20042;-70
2023/05/14 05:39:54;;;;;;;;;;;12.30;99.90;;;;;;4988297;28;20100;-70
2023/05/14 05:42:20;;;;;;;16.70;4.45;;;12.30;99.90;;;;;;4992881;28;19921;-70
2023/05/14 05:44:45;;;;;;;11.47;4.73;;;12.30;99.90;;;;;;4982453;28;20689;-70
2023/05/14 05:47:11;;;;;;;11.03;4.50;;;12.40;99.90;;;;;;4985762;28;20567;-70
2023/05/14 05:49:37;;;;;;;11.65;4.80;;;12.50;99.90;;;;;;4986547;28;20086;-69
2023/05/14 05:52:03;;;;;;;12.33;4.60;;;12.50;99.90;;;;;;4987071;28;20061;-69
2023/05/14 05:54:31;;;;;;;9.50;4.13;;;12.50;99.90;;;;;;4989608;28;20058;-70
2023/05/14 05:56:57;;;;;;;13.15;4.88;;;12.50;99.90;;;;;;4987488;28;20065;-69
2023/05/14 05:59:23;;;;;;;16.90;5.15;;;12.50;99.90;;;;;;4986920;28;20606;-70
2023/05/14 06:01:49;;;;;;;6.65;4.05;;;12.50;99.90;;;;;;4983431;28;20050;-70
2023/05/14 06:04:15;;;;;;;15.57;4.97;;;12.60;99.90;;;;;;4993836;28;20057;-70
2023/05/14 06:06:40;;;;;;;14.80;4.78;;;12.50;99.90;;;;;;4985273;28;20104;-70
2023/05/14 06:09:07;;;;;;;11.15;4.07;;;12.60;99.90;;;;;;4986846;28;20084;-69
2023/05/14 06:11:33;;;;;;;8.85;4.43;;;12.60;99.90;;;;;;4986713;28;20046;-70
2023/05/14 06:13:59;;;;;;;11.50;4.13;;;12.60;99.90;;;;;;4985202;28;20187;-69
2023/05/14 06:16:24;;;;;;;13.37;4.20;;;12.60;99.90;;;;;;4986955;28;20085;-69
2023/05/14 06:18:51;;;;;;;11.93;4.10;;;12.70;99.90;;;;;;5008577;28;20412;-69
2023/05/14 06:21:17;;;;;;;;;;;12.70;99.90;;;;;;4987373;28;20065;-69
2023/05/14 06:23:43;;;;;;;14.15;3.97;;;12.70;99.90;;;;;;4986631;28;19917;-70
2023/05/14 06:26:09;;;;;;;11.02;3.83;;;12.70;99.90;;;;;;4978817;28;20396;-69
2023/05/14 06:28:34;;;;;;;10.07;4.50;;;12.80;99.90;;;;;;4986244;28;20053;-69
2023/05/14 06:31:00;;;;;;;13.90;4.70;;;12.80;99.90;;;;;;4987895;28;20053;-69
2023/05/14 06:33:29;;;;;;;13.37;4.53;;;12.80;99.90;;;;;;4969029;28;20034;-70
2023/05/14 06:35:58;;;;;;;8.88;4.85;;;12.80;99.90;;;;;;5000813;28;20770;-69
2023/05/14 06:38:24;;;;;;;12.05;4.63;;;12.90;99.90;;;;;;4992411;28;20050;-69
2023/05/14 06:40:51;;;;;;;9.27;5.32;;;12.90;99.90;;;;;;4993770;28;20085;-70
2023/05/14 06:43:17;;;;;;;11.10;4.80;;;12.90;99.90;;;;;;4984809;28;20113;-70
2023/05/14 06:45:43;;;;;;;8.55;4.60;;;12.90;99.90;;;;;;4986820;28;20042;-69
2023/05/14 06:48:08;;;;;;;14.97;4.80;;;13.00;99.90;;;;;;4986532;28;20082;-70
2023/05/14 06:50:34;;;;;;;10.02;4.47;;;13.00;99.90;;;;;;4969813;28;20050;-69
2023/05/14 06:53:00;;;;;;;16.70;5.15;;;13.10;99.90;;;;;;4980245;28;20444;-70
2023/05/14 06:55:26;;;;;;;12.33;5.50;;;13.10;99.90;;;;;;4984425;28;20062;-70
2023/05/14 06:57:51;;;;;;;12.77;5.57;;;13.10;99.90;;;;;;4981556;28;20081;-69
2023/05/14 07:00:17;;;;;;;11.40;4.57;;;13.30;99.90;;;;;;4975068;28;20050;-69
2023/05/14 07:02:43;;;;;;;17.00;5.57;;;13.40;99.90;;;;;;4981724;28;20542;-69
2023/05/14 07:05:09;;;;;;;13.70;5.50;;;13.50;99.90;;;;;;4982985;28;20043;-69
2023/05/14 07:07:35;;;;;;;;;;;13.60;99.90;;;;;;4994996;28;20042;-69
2023/05/14 07:10:01;;;;;;;12.43;5.15;;;13.70;99.90;;;;;;4978144;28;19918;-70
2023/05/14 07:12:27;;;;;;;12.45;5.18;;;13.70;99.90;;;;;;4981999;28;20096;-69
2023/05/14 07:14:52;;;;;;;13.30;4.43;;;13.80;99.90;;;;;;4988377;28;20038;-69
2023/05/14 07:17:18;;;;;;;10.17;4.70;;;13.90;99.90;;;;;;4991317;28;20045;-69
2023/05/14 07:19:44;;;;;;;18.87;5.40;;;13.90;99.90;;;;;;4981482;28;20788;-70
2023/05/14 07:22:10;;;;;;;11.75;5.40;;;14.00;99.90;;;;;;4985321;28;20383;-71
2023/05/14 07:24:35;;;;;;;13.83;4.60;;;14.10;99.90;;;;;;4974154;28;20046;-69
2023/05/14 07:27:01;;;;;;;12.50;4.27;;;14.10;99.90;;;;;;4981162;28;20418;-69
2023/05/14 07:29:28;;;;;;;12.82;5.10;;;14.20;99.90;;;;;;4985254;28;20051;-69
2023/05/14 07:31:54;;;;;;;8.48;4.07;;;14.20;99.90;;;;;;5001177;28;20050;-69
2023/05/14 07:34:20;;;;;;;10.35;4.90;;;14.20;99.90;;;;;;5004971;28;20141;-70
2023/05/14 07:36:46;;;;;;;12.20;4.27;;;14.20;99.90;;;;;;4990422;28;20046;-69
2023/05/14 07:39:11;;;;;;;11.98;4.55;;;14.30;99.90;;;;;;4986033;28;20042;-69
2023/05/14 07:41:37;;;;;;;9.75;3.95;;;14.30;99.90;;;;;;4987652;28;20128;-69
2023/05/14 07:44:03;;;;;;;10.83;4.80;;;14.50;99.90;;;;;;4987217;28;20122;-69
2023/05/14 07:46:29;;;;;;;;;;;14.50;99.90;;;;;;4986237;28;20064;-69
2023/05/14 07:48:54;;;;;;;11.77;4.53;;;14.60;99.90;;;;;;4984096;28;20000;-69
2023/05/14 07:51:20;;;;;;;13.07;4.28;;;14.60;99.90;;;;;;4973125;28;20384;-69
2023/05/14 07:53:45;;;;;;;10.05;4.85;;;14.70;99.90;;;;;;4975953;28;20054;-69
2023/05/14 07:56:11;;;;;;;9.37;3.80;;;14.80;99.90;;;;;;4969667;28;20054;-69
2023/05/14 07:58:37;;;;;;;14.57;4.87;;;14.80;99.90;;;;;;4975413;28;20042;-69
2023/05/14 08:01:05;;;;;;;12.00;5.07;;;14.80;99.90;;;;;;4988956;28;20423;-69
2023/05/14 08:03:32;;;;;;;13.18;5.10;;;14.90;99.90;;;;;;4988312;28;20132;-69
2023/05/14 08:05:58;;;;;;;12.30;4.03;;;15.00;99.90;;;;;;4989219;28;20068;-69
2023/05/14 08:08:23;;;;;;;10.10;4.07;;;15.00;99.90;;;;;;4990055;28;20224;-69
2023/05/14 08:10:50;;;;;;;8.17;4.37;;;15.20;99.90;;;;;;4988576;28;20046;-70
2023/05/14 08:13:15;;;;;;;11.40;5.10;;;15.30;99.90;;;;;;4988872;28;20112;-69
2023/05/14 08:15:41;;;;;;;7.53;3.83;;;15.20;99.90;;;;;;4990587;28;20042;-69
2023/05/14 08:18:06;;;;;;;11.32;4.60;;;15.20;99.90;;;;;;4989703;28;20042;-69
2023/05/14 08:20:32;;;;;;;8.87;4.33;;;15.30;99.90;;;;;;4990437;28;20061;-70
2023/05/14 08:22:58;;;;;;;10.07;3.93;;;15.30;99.90;;;;;;4988167;28;20046;-70
2023/05/14 08:25:26;;;;;;;9.00;3.83;;;15.40;99.90;;;;;;4988119;28;20319;-69
2023/05/14 08:27:53;;;;;;;9.55;4.22;;;15.50;99.90;;;;;;4980120;28;20176;-70
2023/05/14 08:30:19;;;;;;;12.82;4.38;;;15.60;99.90;;;;;;4987716;28;20463;-71
2023/05/14 08:32:44;;;;;;;10.57;3.67;;;15.70;99.90;;;;;;4988516;28;20034;-69
2023/05/14 08:35:10;;;;;;;7.68;3.78;;;15.90;99.90;;;;;;4983711;28;20053;-76
2023/05/14 08:37:36;;;;;;;8.80;4.03;;;15.90;99.90;;;;;;4989222;28;20049;-70
2023/05/14 08:40:02;;;;;;;11.20;4.30;;;15.90;99.90;;;;;;4986204;28;20135;-71
2023/05/14 08:42:28;;;;;;;9.32;4.03;;;15.90;99.90;;;;;;4984804;28;20047;-70
2023/05/14 08:45:03;;;;;;;8.52;4.30;;;16.00;99.90;;;;;;4981266;28;20182;-75
2023/05/14 08:47:30;;;;;;;12.48;4.43;;;16.00;99.90;;;;;;4988340;28;20065;-74
2023/05/14 08:50:04;;;;;;;9.15;4.07;;;16.00;99.90;;;;;;4991123;28;20045;-70
2023/05/14 08:52:30;;;;;;;9.43;3.83;;;16.20;99.90;;;;;;5007998;28;20490;-69
2023/05/14 08:54:58;;;;;;;10.73;4.32;;;16.30;99.90;;;;;;4985812;28;20042;-69
2023/05/14 08:57:25;;;;;;;10.40;4.00;;;16.40;99.90;;;;;;4984070;28;20109;-70
2023/05/14 08:59:54;;;;;;;7.38;3.63;;;16.40;99.90;;;;;;4986023;28;20038;-69
2023/05/14 09:02:23;;;;;;;8.48;3.60;;;16.50;99.90;;;;;;4986980;28;20046;-69
2023/05/14 09:04:55;;;;;;;8.95;3.42;;;16.60;99.90;;;;;;4988233;28;20057;-70
2023/05/14 09:07:21;;;;;;;6.88;3.28;;;16.60;99.90;;;;;;4988822;28;20049;-72
2023/05/14 09:09:47;;;;;;;6.57;3.17;;;16.60;99.90;;;;;;4989350;28;20030;-72
2023/05/14 09:12:13;;;;;;;7.28;3.47;;;16.70;99.90;;;;;;4971295;28;20047;-71
2023/05/14 09:14:38;;;;;;;10.65;3.78;;;16.80;99.90;;;;;;4987338;28;20050;-72
2023/05/14 09:17:04;;;;;;;9.50;3.65;;;16.90;99.90;;;;;;4987612;28;20076;-78
2023/05/14 09:19:32;;;;;;;7.70;3.38;;;17.00;99.90;;;;;;5002612;28;20044;-74
2023/05/14 09:21:58;;;;;;;10.57;3.55;;;17.10;99.90;;;;;;4986300;28;20455;-73
2023/05/14 09:24:26;;;;;;;7.22;2.95;;;17.10;99.90;;;;;;4987901;28;20261;-77
2023/05/14 09:26:57;;;;;;;10.73;3.90;;;17.20;99.90;;;;;;4979939;28;20373;-79
2023/05/14 09:29:29;;;;;;;10.18;4.38;;;17.30;99.90;;;;;;4987453;28;20101;-73
2023/05/14 09:31:56;;;;;;;8.02;3.70;;;17.40;99.90;;;;;;4982794;28;20049;-80
2023/05/14 09:34:27;;;;;;;7.65;3.50;;;17.50;99.90;;;;;;4981949;28;20118;-74
2023/05/14 09:36:57;;;;;;;8.35;3.85;;;17.60;99.90;;;;;;4979468;28;20476;-73
2023/05/14 09:39:24;;;;;;;10.25;4.05;;;17.70;99.90;;;;;;5005000;28;20044;-76
2023/05/14 09:41:53;;;;;;;6.28;3.67;;;17.70;99.90;;;;;;4970372;28;20087;-72
2023/05/14 09:44:22;;;;;;;9.80;3.60;;;17.70;99.90;;;;;;4988222;28;20052;-78
2023/05/14 09:46:48;;;;;;;10.00;4.10;;;17.80;99.90;;;;;;4966793;28;20552;-74
2023/05/14 09:49:14;;;;;;;9.15;3.40;;;17.80;99.90;;;;;;4988763;28;20081;-70
2023/05/14 09:51:40;;;;;;;6.45;3.78;;;17.80;99.90;;;;;;4983798;28;20041;-74
2023/05/14 09:54:07;;;;;;;8.75;3.75;;;17.90;99.90;;;;;;4985521;28;20061;-79
2023/05/14 09:56:33;;;;;;;7.55;3.72;;;18.00;99.90;;;;;;4985669;28;20038;-78
2023/05/14 09:59:04;;;;;;;7.25;3.75;;;18.20;99.90;;;;;;4986857;28;20168;-71
2023/05/14 10:01:31;;;;;;;9.52;3.92;;;18.30;99.90;;;;;;4978204;28;20124;-70
2023/05/14 10:03:58;;;;;;;11.63;4.05;;;18.40;99.90;;;;;;4989511;28;20557;-70
2023/05/14 10:06:33;;;;;;;7.80;3.90;;;18.60;99.90;;;;;;4987802;28;20125;-70
2023/05/14 10:09:12;;;;;;;11.07;4.15;;;18.70;99.90;;;;;;4984326;28;20046;-70
2023/05/14 10:11:41;;;;;;;5.88;3.75;;;18.80;99.90;;;;;;4993168;28;20034;-70
2023/05/14 10:14:41;;;;;;;7.50;3.60;;;18.80;99.90;;;;;;4983388;28;20046;-70
2023/05/14 10:17:16;;;;;;;11.77;3.95;;;18.80;99.90;;;;;;4985574;28;20445;-70
2023/05/14 10:19:46;;;;;;;8.98;3.55;;;18.80;99.90;;;;;;4991578;28;20053;-75
2023/05/14 10:22:13;;;;;;;9.00;4.20;;;18.80;99.90;;;;;;4982911;28;20046;-70
2023/05/14 10:24:40;;;;;;;10.85;3.40;;;18.90;99.90;;;;;;4986969;28;20102;-78
2023/05/14 10:27:06;;;;;;;8.45;3.35;;;19.00;99.90;;;;;;4991296;28;20580;-79
2023/05/14 10:29:36;;;;;;;8.10;3.80;;;19.10;99.90;;;;;;4997491;28;20121;-69
2023/05/14 10:32:06;;;;;;;10.27;3.90;;;19.20;99.90;;;;;;4987325;28;20057;-70
2023/05/14 10:34:45;;;;;;;8.13;4.18;;;19.20;99.90;;;;;;4971768;28;20037;-70
2023/05/14 10:37:14;;;;;;;9.90;3.88;;;19.30;99.90;;;;;;4982394;28;20413;-70
2023/05/14 10:39:39;;;;;;;6.78;3.95;;;19.30;99.90;;;;;;4983368;28;20243;-70
2023/05/14 10:42:06;;;;;;;11.82;4.18;;;19.50;99.90;;;;;;4989569;28;20116;-70
2023/05/14 10:44:34;;;;;;;6.80;3.45;;;19.60;99.90;;;;;;4986875;28;20141;-70
2023/05/14 10:47:01;;;;;;;7.45;3.80;;;19.70;99.90;;;;;;4979061;28;20042;-70
2023/05/14 10:49:27;;;;;;;9.73;4.00;;;19.80;99.90;;;;;;4989021;28;20039;-70
2023/05/14 10:51:53;;;;;;;10.55;3.70;;;19.80;99.90;;;;;;4979363;28;20472;-70
2023/05/14 10:54:18;;;;;;;9.48;4.20;;;19.90;99.90;;;;;;4984454;28;20349;-70
2023/05/14 10:56:51;;;;;;;9.75;4.03;;;19.90;99.90;;;;;;4992576;28;20069;-70
2023/05/14 10:59:16;;;;;;;8.02;4.57;;;20.00;99.90;;;;;;4976539;28;20115;-70
2023/05/14 11:01:43;;;;;;;8.95;4.00;;;20.10;99.90;;;;;;4991892;28;20077;-70
2023/05/14 11:04:17;;;;;;;10.82;3.95;;;20.10;99.90;;;;;;4983568;28;20568;-70
2023/05/14 11:06:46;;;;;;;9.80;4.10;;;20.20;99.90;;;;;;4979690;28;20038;-70
2023/05/14 11:09:16;;;;;;;8.18;3.58;;;20.30;99.90;;;;;;4989183;28;20053;-78
2023/05/14 11:11:42;;;;;;;5.90;3.33;;;20.30;99.90;;;;;;4982721;28;20364;-70
2023/05/14 11:14:08;;;;;;;6.60;3.30;;;20.40;99.90;;;;;;4973402;28;20042;-71
2023/05/14 11:16:35;;;;;;;6.50;4.07;;;20.40;99.90;;;;;;4985476;28;20396;-70
2023/05/14 11:19:05;;;;;;;12.07;4.45;;;20.40;99.90;;;;;;4990855;28;20054;-70
2023/05/14 11:21:33;;;;;;;9.15;3.70;;;20.50;99.90;;;;;;4984882;28;20049;-70
2023/05/14 11:23:59;;;;;;;6.85;3.58;;;20.50;99.90;;;;;;4978420;28;20387;-70
2023/05/14 11:26:25;;;;;;;9.52;3.97;;;20.60;99.90;;;;;;4992886;28;20054;-78
2023/05/14 11:28:54;;;;;;;8.35;4.38;;;20.70;99.90;;;;;;4977770;28;20039;-70
2023/05/14 11:31:24;;;;;;;11.32;3.72;;;20.80;99.90;;;;;;4985991;28;20050;-70
2023/05/14 11:33:51;;;;;;;13.32;4.38;;;20.80;99.90;;;;;;4984222;28;20030;-70
2023/05/14 11:36:16;;;;;;;7.07;3.72;;;20.90;99.90;;;;;;4989211;28;20046;-70
2023/05/14 11:38:50;;;;;;;6.95;4.22;;;20.90;99.90;;;;;;4980991;28;20049;-70
2023/05/14 11:41:16;;;;;;;8.13;3.50;;;21.00;99.90;;;;;;4980461;28;20085;-70
2023/05/14 11:43:41;;;;;;;7.32;3.70;;;21.00;99.90;;;;;;4973620;28;20137;-70
2023/05/14 11:46:16;;;;;;;7.97;4.20;;;21.00;99.90;;;;;;4956016;28;20051;-70
2023/05/14 11:48:42;;;;;;;6.18;3.95;;;21.20;99.90;;;;;;4982672;28;20046;-70
2023/05/14 11:51:08;;;;;;;10.60;3.80;;;21.20;99.90;;;;;;4972589;28;20130;-70
2023/05/14 11:53:33;;;;;;;5.47;3.78;;;21.40;99.90;;;;;;4983327;28;20050;-70
2023/05/14 11:55:59;;;;;;;6.93;3.53;;;21.50;99.90;;;;;;4981264;28;20074;-70
2023/05/14 11:58:25;;;;;;;7.90;4.13;;;21.60;99.90;;;;;;4973079;28;20052;-70
2023/05/14 12:00:51;;;;;;;;;;;21.80;99.90;;;;;;4988977;28;20045;-70
2023/05/14 12:03:24;;;;;;;10.32;4.10;;;21.80;99.90;;;;;;4988161;28;19924;-70
2023/05/14 12:06:00;;;;;;;7.03;3.28;;;21.90;99.90;;;;;;4987565;28;20042;-70
2023/05/14 12:08:28;;;;;;;8.70;3.55;;;22.00;99.90;;;;;;4981034;28;20043;-70
2023/05/14 12:10:54;;;;;;;5.28;2.85;;;22.00;99.90;;;;;;4976227;28;20050;-70
2023/05/14 12:13:21;;;;;;;8.80;3.83;;;22.00;99.90;;;;;;4988167;28;20042;-70
2023/05/14 12:15:52;;;;;;;7.13;3.75;;;21.90;99.90;;;;;;4989341;28;20066;-70
2023/05/14 12:18:18;;;;;;;8.48;3.95;;;21.90;99.90;;;;;;4980462;28;20050;-70
2023/05/14 12:20:47;;;;;;;;;;;21.80;99.90;;;;;;4990314;28;20492;-70
2023/05/14 12:23:13;;;;;;;9.23;4.28;;;21.80;99.90;;;;;;4989762;28;19918;-70
2023/05/14 12:25:39;;;;;;;;;;;21.80;99.90;;;;;;4988415;28;20042;-70
2023/05/14 12:28:14;;;;;;;8.23;3.15;;;21.80;99.90;;;;;;4987364;28;20355;-70
2023/05/14 12:30:40;;;;;;;11.07;3.37;;;21.80;99.90;;;;;;4987666;28;20323;-70
2023/05/14 12:33:05;;;;;;;;;;;21.90;99.90;;;;;;4984314;28;20045;-70
2023/05/14 12:35:31;;;;;;;10.88;4.05;;;21.90;99.90;;;;;;4984906;28;19918;-70
2023/05/14 12:37:57;;;;;;;5.82;3.50;;;22.00;99.90;;;;;;4988056;28;20278;-70
2023/05/14 12:40:23;;;;;;;10.77;4.80;;;21.90;99.90;;;;;;4975108;28;20188;-70
2023/05/14 12:42:48;;;;;;;7.78;3.58;;;21.80;99.90;;;;;;4987724;28;20054;-70
2023/05/14 12:45:14;;;;;;;;;;;21.80;99.90;;;;;;4989810;28;20497;-70